sensor_id;sensor_type;location;lat;lon;timestamp;temperature;humidity
23124;DHT22;11731;48.592;8.858;2022-09-28T00:00:36;11.80;99.90
23124;DHT22;11731;48.592;8.858;2022-09-28T00:03:04;11.90;99.90
23124;DHT22;11731;48.592;8.858;2022-09-28T00:05:32;11.50;99.90
23124;DHT22;11731;48.592;8.858;2022-09-28T00:07:59;11.00;99.90
23124;DHT22;11731;48.592;8.858;2022-09-28T00:10:26;11.20;99.90
23124;DHT22;11731;48.592;8.858;2022-09-28T00:12:53;11.20;99.90
23124;DHT22;11731;48.592;8.858;2022-09-28T00:15:21;11.30;99.90
23124;DHT22;11731;48.592;8.858;2022-09-28T00:17:49;11.20;99.90
23124;DHT22;11731;48.592;8.858;2022-09-28T00:20:17;11.10;99.90
23124;DHT22;11731;48.592;8.858;2022-09-28T00:22:45;11.00;99.90
23124;DHT22;11731;48.592;8.858;2022-09-28T00:25:11;11.30;99.90
23124;DHT22;11731;48.592;8.858;2022-09-28T00:27:41;11.40;99.90
23124;DHT22;11731;48.592;8.858;2022-09-28T00:30:08;11.40;99.90
23124;DHT22;11731;48.592;8.858;2022-09-28T00:32:35;11.40;99.90
23124;DHT22;11731;48.592;8.858;2022-09-28T00:35:02;11.30;99.90
23124;DHT22;11731;48.592;8.858;2022-09-28T00:37:31;11.30;99.90
23124;DHT22;11731;48.592;8.858;2022-09-28T00:39:58;11.40;99.90
23124;DHT22;11731;48.592;8.858;2022-09-28T00:42:26;11.50;99.90
23124;DHT22;11731;48.592;8.858;2022-09-28T00:44:53;11.50;99.90
23124;DHT22;11731;48.592;8.858;2022-09-28T00:47:44;11.40;99.90
23124;DHT22;11731;48.592;8.858;2022-09-28T00:50:22;11.40;99.90
23124;DHT22;11731;48.592;8.858;2022-09-28T00:52:55;11.40;99.90
23124;DHT22;11731;48.592;8.858;2022-09-28T00:55:30;11.50;99.90
23124;DHT22;11731;48.592;8.858;2022-09-28T00:58:02;11.60;99.90
23124;DHT22;11731;48.592;8.858;2022-09-28T01:00:29;11.30;99.90
23124;DHT22;11731;48.592;8.858;2022-09-28T01:02:57;11.30;99.90
23124;DHT22;11731;48.592;8.858;2022-09-28T01:05:25;11.40;99.90
23124;DHT22;11731;48.592;8.858;2022-09-28T01:07:54;11.50;99.90
23124;DHT22;11731;48.592;8.858;2022-09-28T01:10:21;11.50;99.90
23124;DHT22;11731;48.592;8.858;2022-09-28T01:12:48;11.30;99.90
23124;DHT22;11731;48.592;8.858;2022-09-28T01:15:15;11.20;99.90
23124;DHT22;11731;48.592;8.858;2022-09-28T01:17:58;11.00;99.90
23124;DHT22;11731;48.592;8.858;2022-09-28T01:20:32;11.20;99.90
23124;DHT22;11731;48.592;8.858;2022-09-28T01:26:33;11.00;99.90
23124;DHT22;11731;48.592;8.858;2022-09-28T01:29:10;11.00;99.90
23124;DHT22;11731;48.592;8.858;2022-09-28T01:31:41;11.10;99.90
23124;DHT22;11731;48.592;8.858;2022-09-28T01:34:11;11.00;99.90
23124;DHT22;11731;48.592;8.858;2022-09-28T01:36:42;10.70;99.90
23124;DHT22;11731;48.592;8.858;2022-09-28T01:39:14;10.50;99.90
23124;DHT22;11731;48.592;8.858;2022-09-28T01:41:45;10.60;99.90
23124;DHT22;11731;48.592;8.858;2022-09-28T01:44:16;10.80;99.90
23124;DHT22;11731;48.592;8.858;2022-09-28T01:46:47;11.00;99.90
23124;DHT22;11731;48.592;8.858;2022-09-28T01:49:17;10.80;99.90
23124;DHT22;11731;48.592;8.858;2022-09-28T01:51:47;10.50;99.90
23124;DHT22;11731;48.592;8.858;2022-09-28T01:54:20;10.40;99.90
23124;DHT22;11731;48.592;8.858;2022-09-28T01:56:54;10.20;99.90
23124;DHT22;11731;48.592;8.858;2022-09-28T01:59:26;10.10;99.90
23124;DHT22;11731;48.592;8.858;2022-09-28T02:01:58;10.30;99.90
23124;DHT22;11731;48.592;8.858;2022-09-28T02:04:30;10.30;99.90
23124;DHT22;11731;48.592;8.858;2022-09-28T02:07:04;10.40;99.90
23124;DHT22;11731;48.592;8.858;2022-09-28T02:09:36;10.20;99.90
23124;DHT22;11731;48.592;8.858;2022-09-28T02:12:12;10.30;99.90
23124;DHT22;11731;48.592;8.858;2022-09-28T02:14:41;10.30;99.90
23124;DHT22;11731;48.592;8.858;2022-09-28T02:17:10;10.60;99.90
23124;DHT22;11731;48.592;8.858;2022-09-28T02:19:38;10.70;99.90
23124;DHT22;11731;48.592;8.858;2022-09-28T02:22:11;10.70;99.90
23124;DHT22;11731;48.592;8.858;2022-09-28T02:24:41;10.80;99.90
23124;DHT22;11731;48.592;8.858;2022-09-28T02:27:24;10.60;99.90
23124;DHT22;11731;48.592;8.858;2022-09-28T02:29:55;10.70;99.90
23124;DHT22;11731;48.592;8.858;2022-09-28T02:32:23;10.70;99.90
23124;DHT22;11731;48.592;8.858;2022-09-28T02:34:50;10.60;99.90
23124;DHT22;11731;48.592;8.858;2022-09-28T02:37:17;10.80;99.90
23124;DHT22;11731;48.592;8.858;2022-09-28T02:39:44;10.60;99.90
23124;DHT22;11731;48.592;8.858;2022-09-28T02:42:18;10.50;99.90
23124;DHT22;11731;48.592;8.858;2022-09-28T02:45:07;10.50;99.90
23124;DHT22;11731;48.592;8.858;2022-09-28T02:48:00;10.50;99.90
23124;DHT22;11731;48.592;8.858;2022-09-28T02:50:37;10.30;99.90
23124;DHT22;11731;48.592;8.858;2022-09-28T02:53:24;10.50;99.90
23124;DHT22;11731;48.592;8.858;2022-09-28T02:56:02;10.60;99.90
23124;DHT22;11731;48.592;8.858;2022-09-28T02:58:37;10.40;99.90
23124;DHT22;11731;48.592;8.858;2022-09-28T03:01:16;10.40;99.90
23124;DHT22;11731;48.592;8.858;2022-09-28T03:03:47;10.40;99.90
23124;DHT22;11731;48.592;8.858;2022-09-28T03:06:21;10.50;99.90
23124;DHT22;11731;48.592;8.858;2022-09-28T03:08:53;10.60;99.90
23124;DHT22;11731;48.592;8.858;2022-09-28T03:11:27;10.60;99.90
23124;DHT22;11731;48.592;8.858;2022-09-28T03:13:57;10.50;99.90
23124;DHT22;11731;48.592;8.858;2022-09-28T03:16:24;10.50;99.90
23124;DHT22;11731;48.592;8.858;2022-09-28T03:18:52;10.50;99.90
23124;DHT22;11731;48.592;8.858;2022-09-28T03:21:19;10.50;99.90
23124;DHT22;11731;48.592;8.858;2022-09-28T03:23:46;10.60;99.90
23124;DHT22;11731;48.592;8.858;2022-09-28T03:26:13;10.70;99.90
23124;DHT22;11731;48.592;8.858;2022-09-28T03:28:41;10.90;99.90
23124;DHT22;11731;48.592;8.858;2022-09-28T03:31:09;11.00;99.90
23124;DHT22;11731;48.592;8.858;2022-09-28T03:33:36;11.00;99.90
23124;DHT22;11731;48.592;8.858;2022-09-28T03:36:03;11.00;99.90
23124;DHT22;11731;48.592;8.858;2022-09-28T03:38:33;10.90;99.90
23124;DHT22;11731;48.592;8.858;2022-09-28T03:40:59;11.00;99.90
23124;DHT22;11731;48.592;8.858;2022-09-28T03:43:28;11.20;99.90
23124;DHT22;11731;48.592;8.858;2022-09-28T03:45:56;11.20;99.90
23124;DHT22;11731;48.592;8.858;2022-09-28T03:48:26;11.30;99.90
23124;DHT22;11731;48.592;8.858;2022-09-28T03:50:54;11.20;99.90
23124;DHT22;11731;48.592;8.858;2022-09-28T03:53:21;11.40;99.90
23124;DHT22;11731;48.592;8.858;2022-09-28T03:55:49;11.50;99.90
23124;DHT22;11731;48.592;8.858;2022-09-28T03:58:18;11.50;99.90
23124;DHT22;11731;48.592;8.858;2022-09-28T04:00:45;11.50;99.90
23124;DHT22;11731;48.592;8.858;2022-09-28T04:03:12;11.60;99.90
23124;DHT22;11731;48.592;8.858;2022-09-28T04:05:47;11.70;99.90
23124;DHT22;11731;48.592;8.858;2022-09-28T04:08:28;11.60;99.90
23124;DHT22;11731;48.592;8.858;2022-09-28T04:10:58;11.50;99.90
23124;DHT22;11731;48.592;8.858;2022-09-28T04:13:26;11.30;99.90
23124;DHT22;11731;48.592;8.858;2022-09-28T04:15:54;11.40;99.90
23124;DHT22;11731;48.592;8.858;2022-09-28T04:18:21;11.70;99.90
23124;DHT22;11731;48.592;8.858;2022-09-28T04:20:58;12.00;99.90
23124;DHT22;11731;48.592;8.858;2022-09-28T04:23:28;12.10;99.90
23124;DHT22;11731;48.592;8.858;2022-09-28T04:25:54;11.90;99.90
23124;DHT22;11731;48.592;8.858;2022-09-28T04:28:21;12.00;99.90
23124;DHT22;11731;48.592;8.858;2022-09-28T04:31:08;12.00;99.90
23124;DHT22;11731;48.592;8.858;2022-09-28T04:33:35;12.10;99.90
23124;DHT22;11731;48.592;8.858;2022-09-28T04:36:04;12.30;99.90
23124;DHT22;11731;48.592;8.858;2022-09-28T04:38:31;12.40;99.90
23124;DHT22;11731;48.592;8.858;2022-09-28T04:40:58;12.40;99.90
23124;DHT22;11731;48.592;8.858;2022-09-28T04:43:25;12.50;99.90
23124;DHT22;11731;48.592;8.858;2022-09-28T04:45:57;12.40;99.90
23124;DHT22;11731;48.592;8.858;2022-09-28T04:48:23;12.70;99.90
23124;DHT22;11731;48.592;8.858;2022-09-28T04:50:54;12.80;99.90
23124;DHT22;11731;48.592;8.858;2022-09-28T04:53:23;13.00;99.90
23124;DHT22;11731;48.592;8.858;2022-09-28T04:55:57;13.20;99.90
23124;DHT22;11731;48.592;8.858;2022-09-28T04:58:25;13.20;99.90
23124;DHT22;11731;48.592;8.858;2022-09-28T05:00:55;13.30;99.90
23124;DHT22;11731;48.592;8.858;2022-09-28T05:03:22;13.30;99.90
23124;DHT22;11731;48.592;8.858;2022-09-28T05:05:49;13.50;99.90
23124;DHT22;11731;48.592;8.858;2022-09-28T05:08:16;13.60;99.90
23124;DHT22;11731;48.592;8.858;2022-09-28T05:10:45;13.70;99.90
23124;DHT22;11731;48.592;8.858;2022-09-28T05:13:12;13.60;99.90
23124;DHT22;11731;48.592;8.858;2022-09-28T05:15:40;13.40;99.90
23124;DHT22;11731;48.592;8.858;2022-09-28T05:18:08;13.50;99.90
23124;DHT22;11731;48.592;8.858;2022-09-28T05:20:39;13.60;99.90
23124;DHT22;11731;48.592;8.858;2022-09-28T05:23:09;13.50;99.90
23124;DHT22;11731;48.592;8.858;2022-09-28T05:25:36;13.60;99.90
23124;DHT22;11731;48.592;8.858;2022-09-28T05:28:05;13.60;99.90
23124;DHT22;11731;48.592;8.858;2022-09-28T05:30:32;13.20;99.90
23124;DHT22;11731;48.592;8.858;2022-09-28T05:32:59;12.60;99.90
23124;DHT22;11731;48.592;8.858;2022-09-28T05:35:26;12.00;99.90
23124;DHT22;11731;48.592;8.858;2022-09-28T05:37:57;11.80;99.90
23124;DHT22;11731;48.592;8.858;2022-09-28T05:40:28;11.60;99.90
23124;DHT22;11731;48.592;8.858;2022-09-28T05:45:57;11.60;99.90
23124;DHT22;11731;48.592;8.858;2022-09-28T05:48:24;11.10;99.90
23124;DHT22;11731;48.592;8.858;2022-09-28T05:51:01;11.10;99.90
23124;DHT22;11731;48.592;8.858;2022-09-28T05:53:28;11.00;99.90
23124;DHT22;11731;48.592;8.858;2022-09-28T05:55:56;11.00;99.90
23124;DHT22;11731;48.592;8.858;2022-09-28T05:58:33;11.00;99.90
23124;DHT22;11731;48.592;8.858;2022-09-28T06:01:16;11.20;99.90
23124;DHT22;11731;48.592;8.858;2022-09-28T06:03:43;11.20;99.90
23124;DHT22;11731;48.592;8.858;2022-09-28T06:06:10;11.20;99.90
23124;DHT22;11731;48.592;8.858;2022-09-28T06:08:36;11.20;99.90
23124;DHT22;11731;48.592;8.858;2022-09-28T06:11:07;11.30;99.90
23124;DHT22;11731;48.592;8.858;2022-09-28T06:13:37;11.40;99.90
23124;DHT22;11731;48.592;8.858;2022-09-28T06:16:06;11.40;99.90
23124;DHT22;11731;48.592;8.858;2022-09-28T06:18:36;11.30;99.90
23124;DHT22;11731;48.592;8.858;2022-09-28T06:21:03;11.80;99.90
23124;DHT22;11731;48.592;8.858;2022-09-28T06:23:30;12.00;99.90
23124;DHT22;11731;48.592;8.858;2022-09-28T06:25:58;11.90;99.90
23124;DHT22;11731;48.592;8.858;2022-09-28T06:28:25;12.00;99.90
23124;DHT22;11731;48.592;8.858;2022-09-28T06:30:52;12.00;99.90
23124;DHT22;11731;48.592;8.858;2022-09-28T06:33:19;11.80;99.90
23124;DHT22;11731;48.592;8.858;2022-09-28T06:35:47;12.10;99.90
23124;DHT22;11731;48.592;8.858;2022-09-28T06:38:14;12.10;99.90
23124;DHT22;11731;48.592;8.858;2022-09-28T06:40:41;12.20;99.90
23124;DHT22;11731;48.592;8.858;2022-09-28T06:43:10;11.90;99.90
23124;DHT22;11731;48.592;8.858;2022-09-28T06:45:40;11.80;99.90
23124;DHT22;11731;48.592;8.858;2022-09-28T06:48:08;12.00;99.90
23124;DHT22;11731;48.592;8.858;2022-09-28T06:50:37;12.30;99.90
23124;DHT22;11731;48.592;8.858;2022-09-28T06:53:07;12.30;99.90
23124;DHT22;11731;48.592;8.858;2022-09-28T06:55:37;12.50;99.90
23124;DHT22;11731;48.592;8.858;2022-09-28T06:58:08;12.80;99.90
23124;DHT22;11731;48.592;8.858;2022-09-28T07:00:36;13.00;99.90
23124;DHT22;11731;48.592;8.858;2022-09-28T07:03:05;13.10;99.90
23124;DHT22;11731;48.592;8.858;2022-09-28T07:05:34;13.30;99.90
23124;DHT22;11731;48.592;8.858;2022-09-28T07:08:03;13.20;99.90
23124;DHT22;11731;48.592;8.858;2022-09-28T07:10:31;13.20;99.90
23124;DHT22;11731;48.592;8.858;2022-09-28T07:13:04;13.50;99.90
23124;DHT22;11731;48.592;8.858;2022-09-28T07:15:31;13.70;99.90
23124;DHT22;11731;48.592;8.858;2022-09-28T07:18:13;13.80;99.90
23124;DHT22;11731;48.592;8.858;2022-09-28T07:20:42;14.10;99.90
23124;DHT22;11731;48.592;8.858;2022-09-28T07:23:09;14.50;99.90
23124;DHT22;11731;48.592;8.858;2022-09-28T07:25:37;14.50;99.90
23124;DHT22;11731;48.592;8.858;2022-09-28T07:28:09;14.50;99.90
23124;DHT22;11731;48.592;8.858;2022-09-28T07:30:37;14.60;99.90
23124;DHT22;11731;48.592;8.858;2022-09-28T07:33:06;14.60;99.90
23124;DHT22;11731;48.592;8.858;2022-09-28T07:35:33;14.40;99.90
23124;DHT22;11731;48.592;8.858;2022-09-28T07:38:11;14.40;99.90
23124;DHT22;11731;48.592;8.858;2022-09-28T07:40:43;14.30;99.90
23124;DHT22;11731;48.592;8.858;2022-09-28T07:43:27;14.30;99.90
23124;DHT22;11731;48.592;8.858;2022-09-28T07:45:54;14.40;99.90
23124;DHT22;11731;48.592;8.858;2022-09-28T07:48:25;14.50;99.90
23124;DHT22;11731;48.592;8.858;2022-09-28T07:51:02;13.80;99.90
23124;DHT22;11731;48.592;8.858;2022-09-28T07:53:29;12.80;99.90
23124;DHT22;11731;48.592;8.858;2022-09-28T07:55:59;12.50;99.90
23124;DHT22;11731;48.592;8.858;2022-09-28T07:58:30;12.40;99.90
23124;DHT22;11731;48.592;8.858;2022-09-28T08:01:01;12.80;99.90
23124;DHT22;11731;48.592;8.858;2022-09-28T08:03:28;13.00;99.90
23124;DHT22;11731;48.592;8.858;2022-09-28T08:05:57;13.30;99.90
23124;DHT22;11731;48.592;8.858;2022-09-28T08:08:24;13.50;99.90
23124;DHT22;11731;48.592;8.858;2022-09-28T08:10:53;13.60;99.90
23124;DHT22;11731;48.592;8.858;2022-09-28T08:13:22;13.90;99.90
23124;DHT22;11731;48.592;8.858;2022-09-28T08:16:00;13.70;99.90
23124;DHT22;11731;48.592;8.858;2022-09-28T08:18:27;14.00;99.90
23124;DHT22;11731;48.592;8.858;2022-09-28T08:20:56;14.40;99.90
23124;DHT22;11731;48.592;8.858;2022-09-28T08:23:41;14.80;99.90
23124;DHT22;11731;48.592;8.858;2022-09-28T08:26:08;14.80;99.90
23124;DHT22;11731;48.592;8.858;2022-09-28T08:28:36;14.10;99.90
23124;DHT22;11731;48.592;8.858;2022-09-28T08:31:04;13.90;99.90
23124;DHT22;11731;48.592;8.858;2022-09-28T08:33:32;14.10;99.90
23124;DHT22;11731;48.592;8.858;2022-09-28T08:36:00;14.40;99.90
23124;DHT22;11731;48.592;8.858;2022-09-28T08:38:30;14.70;99.90
23124;DHT22;11731;48.592;8.858;2022-09-28T08:41:02;14.60;99.90
23124;DHT22;11731;48.592;8.858;2022-09-28T08:47:15;14.10;99.90
23124;DHT22;11731;48.592;8.858;2022-09-28T08:49:59;14.00;99.90
23124;DHT22;11731;48.592;8.858;2022-09-28T08:52:30;13.60;99.90
23124;DHT22;11731;48.592;8.858;2022-09-28T08:55:02;13.10;99.90
23124;DHT22;11731;48.592;8.858;2022-09-28T08:57:34;12.60;99.90
23124;DHT22;11731;48.592;8.858;2022-09-28T09:00:06;12.50;99.90
23124;DHT22;11731;48.592;8.858;2022-09-28T09:02:34;12.80;99.90
23124;DHT22;11731;48.592;8.858;2022-09-28T09:05:06;12.80;99.90
23124;DHT22;11731;48.592;8.858;2022-09-28T09:08:02;13.40;99.90
23124;DHT22;11731;48.592;8.858;2022-09-28T09:10:48;13.40;99.90
23124;DHT22;11731;48.592;8.858;2022-09-28T09:13:50;13.20;99.90
23124;DHT22;11731;48.592;8.858;2022-09-28T09:16:35;13.70;99.90
23124;DHT22;11731;48.592;8.858;2022-09-28T09:19:12;14.20;99.90
23124;DHT22;11731;48.592;8.858;2022-09-28T09:21:43;14.60;99.90
23124;DHT22;11731;48.592;8.858;2022-09-28T09:24:21;14.70;99.90
23124;DHT22;11731;48.592;8.858;2022-09-28T09:27:03;14.40;99.90
23124;DHT22;11731;48.592;8.858;2022-09-28T09:29:39;14.00;99.90
23124;DHT22;11731;48.592;8.858;2022-09-28T09:32:31;13.40;99.90
23124;DHT22;11731;48.592;8.858;2022-09-28T09:35:16;13.40;99.90
23124;DHT22;11731;48.592;8.858;2022-09-28T09:38:04;13.50;99.90
23124;DHT22;11731;48.592;8.858;2022-09-28T09:40:46;13.70;99.90
23124;DHT22;11731;48.592;8.858;2022-09-28T09:43:36;13.50;99.90
23124;DHT22;11731;48.592;8.858;2022-09-28T09:46:12;13.90;99.90
23124;DHT22;11731;48.592;8.858;2022-09-28T09:48:49;13.90;99.90
23124;DHT22;11731;48.592;8.858;2022-09-28T09:51:23;13.90;99.90
23124;DHT22;11731;48.592;8.858;2022-09-28T09:53:54;13.80;99.90
23124;DHT22;11731;48.592;8.858;2022-09-28T09:56:30;13.70;99.90
23124;DHT22;11731;48.592;8.858;2022-09-28T09:59:06;13.90;99.90
23124;DHT22;11731;48.592;8.858;2022-09-28T10:01:36;14.40;99.90
23124;DHT22;11731;48.592;8.858;2022-09-28T10:04:14;14.80;99.90
23124;DHT22;11731;48.592;8.858;2022-09-28T10:06:42;14.90;99.90
23124;DHT22;11731;48.592;8.858;2022-09-28T10:09:13;14.20;99.90
23124;DHT22;11731;48.592;8.858;2022-09-28T10:15:05;13.80;99.90
23124;DHT22;11731;48.592;8.858;2022-09-28T10:17:39;13.90;99.90
23124;DHT22;11731;48.592;8.858;2022-09-28T10:20:19;13.70;99.90
23124;DHT22;11731;48.592;8.858;2022-09-28T10:22:49;13.60;99.90
23124;DHT22;11731;48.592;8.858;2022-09-28T10:25:17;13.70;99.90
23124;DHT22;11731;48.592;8.858;2022-09-28T10:27:45;13.80;99.90
23124;DHT22;11731;48.592;8.858;2022-09-28T10:30:19;14.10;99.90
23124;DHT22;11731;48.592;8.858;2022-09-28T10:32:49;14.00;99.90
23124;DHT22;11731;48.592;8.858;2022-09-28T10:35:23;14.00;99.90
23124;DHT22;11731;48.592;8.858;2022-09-28T10:37:55;14.20;99.90
23124;DHT22;11731;48.592;8.858;2022-09-28T10:40:39;14.40;99.90
23124;DHT22;11731;48.592;8.858;2022-09-28T10:43:17;14.70;99.90
23124;DHT22;11731;48.592;8.858;2022-09-28T10:45:46;14.70;99.90
23124;DHT22;11731;48.592;8.858;2022-09-28T10:48:19;14.90;99.90
23124;DHT22;11731;48.592;8.858;2022-09-28T10:50:59;14.60;99.90
23124;DHT22;11731;48.592;8.858;2022-09-28T10:53:27;14.80;99.90
23124;DHT22;11731;48.592;8.858;2022-09-28T10:55:57;14.60;99.80
23124;DHT22;11731;48.592;8.858;2022-09-28T10:58:27;14.10;99.90
23124;DHT22;11731;48.592;8.858;2022-09-28T11:01:00;14.20;99.90
23124;DHT22;11731;48.592;8.858;2022-09-28T11:03:29;14.20;99.90
23124;DHT22;11731;48.592;8.858;2022-09-28T11:06:03;14.50;99.90
23124;DHT22;11731;48.592;8.858;2022-09-28T11:08:35;14.80;99.90
23124;DHT22;11731;48.592;8.858;2022-09-28T11:11:06;14.80;98.80
23124;DHT22;11731;48.592;8.858;2022-09-28T11:13:44;14.70;99.90
23124;DHT22;11731;48.592;8.858;2022-09-28T11:16:24;14.40;99.80
23124;DHT22;11731;48.592;8.858;2022-09-28T11:19:25;14.50;99.90
23124;DHT22;11731;48.592;8.858;2022-09-28T11:25:19;14.70;99.90
23124;DHT22;11731;48.592;8.858;2022-09-28T11:28:03;14.70;99.90
23124;DHT22;11731;48.592;8.858;2022-09-28T11:30:48;15.00;99.90
23124;DHT22;11731;48.592;8.858;2022-09-28T11:33:35;15.30;99.90
23124;DHT22;11731;48.592;8.858;2022-09-28T11:36:14;15.10;98.60
23124;DHT22;11731;48.592;8.858;2022-09-28T11:38:52;14.70;99.80
23124;DHT22;11731;48.592;8.858;2022-09-28T11:41:43;14.60;99.90
23124;DHT22;11731;48.592;8.858;2022-09-28T11:44:25;14.70;99.90
23124;DHT22;11731;48.592;8.858;2022-09-28T11:47:03;14.50;99.00
23124;DHT22;11731;48.592;8.858;2022-09-28T11:49:37;14.00;99.90
23124;DHT22;11731;48.592;8.858;2022-09-28T11:52:09;13.90;99.60
23124;DHT22;11731;48.592;8.858;2022-09-28T11:54:43;13.60;99.90
23124;DHT22;11731;48.592;8.858;2022-09-28T11:57:17;13.80;99.90
23124;DHT22;11731;48.592;8.858;2022-09-28T11:59:51;13.90;99.90
23124;DHT22;11731;48.592;8.858;2022-09-28T12:02:24;13.70;99.60
23124;DHT22;11731;48.592;8.858;2022-09-28T12:04:55;13.70;99.90
23124;DHT22;11731;48.592;8.858;2022-09-28T12:07:26;14.10;99.50
23124;DHT22;11731;48.592;8.858;2022-09-28T12:09:58;14.40;99.80
23124;DHT22;11731;48.592;8.858;2022-09-28T12:12:32;14.60;98.90
23124;DHT22;11731;48.592;8.858;2022-09-28T12:15:03;14.60;99.70
23124;DHT22;11731;48.592;8.858;2022-09-28T12:17:35;14.90;99.90
23124;DHT22;11731;48.592;8.858;2022-09-28T12:20:12;15.00;99.10
23124;DHT22;11731;48.592;8.858;2022-09-28T12:22:45;15.50;98.60
23124;DHT22;11731;48.592;8.858;2022-09-28T12:25:15;15.70;98.70
23124;DHT22;11731;48.592;8.858;2022-09-28T12:27:48;15.40;98.30
23124;DHT22;11731;48.592;8.858;2022-09-28T12:30:18;15.60;98.10
23124;DHT22;11731;48.592;8.858;2022-09-28T12:32:48;16.10;97.60
23124;DHT22;11731;48.592;8.858;2022-09-28T12:35:22;15.80;97.10
23124;DHT22;11731;48.592;8.858;2022-09-28T12:38:13;14.90;98.00
23124;DHT22;11731;48.592;8.858;2022-09-28T12:40:50;14.80;98.60
23124;DHT22;11731;48.592;8.858;2022-09-28T12:43:32;15.30;98.00
23124;DHT22;11731;48.592;8.858;2022-09-28T12:46:28;16.10;97.00
23124;DHT22;11731;48.592;8.858;2022-09-28T12:49:26;16.30;97.10
23124;DHT22;11731;48.592;8.858;2022-09-28T12:51:56;15.80;96.60
23124;DHT22;11731;48.592;8.858;2022-09-28T12:57:35;16.70;96.20
23124;DHT22;11731;48.592;8.858;2022-09-28T13:00:07;16.60;95.60
23124;DHT22;11731;48.592;8.858;2022-09-28T13:02:57;16.70;95.10
23124;DHT22;11731;48.592;8.858;2022-09-28T13:05:56;16.10;94.50
23124;DHT22;11731;48.592;8.858;2022-09-28T13:08:32;15.50;95.80
23124;DHT22;11731;48.592;8.858;2022-09-28T13:11:07;15.10;96.40
23124;DHT22;11731;48.592;8.858;2022-09-28T13:13:46;14.90;97.00
23124;DHT22;11731;48.592;8.858;2022-09-28T13:16:34;15.20;97.30
23124;DHT22;11731;48.592;8.858;2022-09-28T13:19:13;14.90;97.50
23124;DHT22;11731;48.592;8.858;2022-09-28T13:21:49;14.70;97.40
23124;DHT22;11731;48.592;8.858;2022-09-28T13:24:25;14.70;97.50
23124;DHT22;11731;48.592;8.858;2022-09-28T13:26:56;15.40;96.90
23124;DHT22;11731;48.592;8.858;2022-09-28T13:29:26;15.60;97.30
23124;DHT22;11731;48.592;8.858;2022-09-28T13:31:57;15.00;95.10
23124;DHT22;11731;48.592;8.858;2022-09-28T13:34:25;14.70;96.40
23124;DHT22;11731;48.592;8.858;2022-09-28T13:37:20;14.60;95.90
23124;DHT22;11731;48.592;8.858;2022-09-28T13:39:50;14.00;96.80
23124;DHT22;11731;48.592;8.858;2022-09-28T13:45:52;14.30;97.10
23124;DHT22;11731;48.592;8.858;2022-09-28T13:48:27;14.40;96.80
23124;DHT22;11731;48.592;8.858;2022-09-28T13:51:19;14.50;96.70
23124;DHT22;11731;48.592;8.858;2022-09-28T13:54:16;14.60;96.60
23124;DHT22;11731;48.592;8.858;2022-09-28T13:56:59;14.50;97.10
23124;DHT22;11731;48.592;8.858;2022-09-28T13:59:32;14.40;97.30
23124;DHT22;11731;48.592;8.858;2022-09-28T14:02:03;14.40;96.10
23124;DHT22;11731;48.592;8.858;2022-09-28T14:05:02;14.40;96.80
23124;DHT22;11731;48.592;8.858;2022-09-28T14:07:54;15.00;97.30
23124;DHT22;11731;48.592;8.858;2022-09-28T14:10:46;14.90;97.30
23124;DHT22;11731;48.592;8.858;2022-09-28T14:14:04;15.00;96.80
23124;DHT22;11731;48.592;8.858;2022-09-28T14:16:32;15.20;95.80
23124;DHT22;11731;48.592;8.858;2022-09-28T14:19:03;15.10;96.80
23124;DHT22;11731;48.592;8.858;2022-09-28T14:22:05;15.10;96.60
23124;DHT22;11731;48.592;8.858;2022-09-28T14:25:03;15.30;96.80
23124;DHT22;11731;48.592;8.858;2022-09-28T14:28:03;15.30;98.10
23124;DHT22;11731;48.592;8.858;2022-09-28T14:30:45;15.50;97.00
23124;DHT22;11731;48.592;8.858;2022-09-28T14:33:31;15.90;96.60
23124;DHT22;11731;48.592;8.858;2022-09-28T14:36:03;16.50;95.80
23124;DHT22;11731;48.592;8.858;2022-09-28T14:38:35;16.70;95.40
23124;DHT22;11731;48.592;8.858;2022-09-28T14:41:27;17.00;95.00
23124;DHT22;11731;48.592;8.858;2022-09-28T14:44:03;17.00;94.60
23124;DHT22;11731;48.592;8.858;2022-09-28T14:46:32;16.30;95.30
23124;DHT22;11731;48.592;8.858;2022-09-28T14:49:01;16.20;95.50
23124;DHT22;11731;48.592;8.858;2022-09-28T14:54:43;16.50;96.00
23124;DHT22;11731;48.592;8.858;2022-09-28T14:57:17;16.30;95.60
23124;DHT22;11731;48.592;8.858;2022-09-28T14:59:44;16.10;96.10
23124;DHT22;11731;48.592;8.858;2022-09-28T15:02:21;16.20;95.40
23124;DHT22;11731;48.592;8.858;2022-09-28T15:04:51;16.40;95.10
23124;DHT22;11731;48.592;8.858;2022-09-28T15:07:22;16.70;95.10
23124;DHT22;11731;48.592;8.858;2022-09-28T15:09:52;17.10;94.70
23124;DHT22;11731;48.592;8.858;2022-09-28T15:12:22;16.20;96.50
23124;DHT22;11731;48.592;8.858;2022-09-28T15:14:53;15.80;95.90
23124;DHT22;11731;48.592;8.858;2022-09-28T15:17:23;15.90;96.00
23124;DHT22;11731;48.592;8.858;2022-09-28T15:20:11;16.00;95.20
23124;DHT22;11731;48.592;8.858;2022-09-28T15:22:44;15.90;96.50
23124;DHT22;11731;48.592;8.858;2022-09-28T15:25:16;15.70;95.90
23124;DHT22;11731;48.592;8.858;2022-09-28T15:27:45;15.50;96.40
23124;DHT22;11731;48.592;8.858;2022-09-28T15:30:22;15.20;96.90
23124;DHT22;11731;48.592;8.858;2022-09-28T15:32:50;15.20;97.20
23124;DHT22;11731;48.592;8.858;2022-09-28T15:35:20;15.40;97.40
23124;DHT22;11731;48.592;8.858;2022-09-28T15:37:48;15.60;97.60
23124;DHT22;11731;48.592;8.858;2022-09-28T15:40:21;15.60;97.00
23124;DHT22;11731;48.592;8.858;2022-09-28T15:42:52;15.70;96.30
23124;DHT22;11731;48.592;8.858;2022-09-28T15:45:24;15.50;96.30
23124;DHT22;11731;48.592;8.858;2022-09-28T15:47:54;15.30;97.00
23124;DHT22;11731;48.592;8.858;2022-09-28T15:50:25;15.00;97.50
23124;DHT22;11731;48.592;8.858;2022-09-28T15:52:55;15.20;97.60
23124;DHT22;11731;48.592;8.858;2022-09-28T15:55:29;15.00;97.10
23124;DHT22;11731;48.592;8.858;2022-09-28T15:58:14;14.80;97.50
23124;DHT22;11731;48.592;8.858;2022-09-28T16:00:42;15.00;97.60
23124;DHT22;11731;48.592;8.858;2022-09-28T16:03:21;15.00;97.20
23124;DHT22;11731;48.592;8.858;2022-09-28T16:05:49;14.80;97.70
23124;DHT22;11731;48.592;8.858;2022-09-28T16:08:17;14.70;97.20
23124;DHT22;11731;48.592;8.858;2022-09-28T16:11:13;14.40;97.70
23124;DHT22;11731;48.592;8.858;2022-09-28T16:13:53;14.60;97.80
23124;DHT22;11731;48.592;8.858;2022-09-28T16:16:26;14.70;97.80
23124;DHT22;11731;48.592;8.858;2022-09-28T16:18:56;14.70;97.80
23124;DHT22;11731;48.592;8.858;2022-09-28T16:21:36;14.60;98.10
23124;DHT22;11731;48.592;8.858;2022-09-28T16:24:04;14.50;97.80
23124;DHT22;11731;48.592;8.858;2022-09-28T16:26:35;14.50;97.70
23124;DHT22;11731;48.592;8.858;2022-09-28T16:29:07;14.50;97.80
23124;DHT22;11731;48.592;8.858;2022-09-28T16:31:35;14.60;98.20
23124;DHT22;11731;48.592;8.858;2022-09-28T16:34:16;14.60;98.40